CheckWX is a tool to help pilots better visualize weather data.  It is not intended as a substitute for an official pre-flight weather briefing.

13:23:15 UTC

EBAW METAR
Antwerp International (Deurne) Airport
Antwerp, Belgium
Current

33 mins ago

EBAW 131250Z 29013KT 7000 -RA FEW008 SCT012 BKN015 06/05 Q0978 TEMPO 29015G26KT 4000 RADZ BKN012
Observed
Dec-13 @ 12:50 UTC
Wind
  • 290° at 13 KTS
Visibility
7,000 meters
Flight Rules
MVFR
Conditions
Light Rain
Cloud Levels
  • Few at 800' AGL
  • Scattered at 1,200' AGL
  • Broken at 1,500' AGL
Temperature
C / 43°F
Dewpoint
C / 41°F
Humidity
93%
Altimeter
28.88" Hg
Pressure
977.92 hPa
Previous

1 hour ago

EBAW 131220Z 29013KT 5000 RA FEW005 BKN007 06/05 Q0977 TEMPO 29015G26KT 4000 RADZ
Observed
Dec-13 @ 12:20 UTC
Wind
  • 290° at 13 KTS
Visibility
5,000 meters
Flight Rules
IFR
Conditions
Rain
Cloud Levels
  • Few at 500' AGL
  • Broken at 700' AGL
Temperature
C / 43°F
Dewpoint
C / 41°F
Humidity
93%
Altimeter
28.85" Hg
Pressure
976.92 hPa
Previous

2 hours ago

EBAW 131150Z 31011KT 9000 -RA FEW008 BKN011 06/05 Q0976 TEMPO 30015G26KT 4000 RADZ BKN008
Observed
Dec-13 @ 11:50 UTC
Wind
  • 310° at 11 KTS
Visibility
9,000 meters
Flight Rules
MVFR
Conditions
Light Rain
Cloud Levels
  • Few at 800' AGL
  • Broken at 1,100' AGL
Temperature
C / 43°F
Dewpoint
C / 41°F
Humidity
93%
Altimeter
28.82" Hg
Pressure
975.92 hPa